Time;durP1;ratioP1;P1;durP2;ratioP2;P2;SDS_P1;SDS_P2;PMS_P1;PMS_P2;Temp;Humidity;BMP_temperature;BMP_pressure;BME280_temperature;BME280_humidity;BME280_pressure;Samples;Min_cycle;Max_cycle;Signal;HPM_P1;HPM_P2
2021/12/24 00:01:18;;;;;;;5.65;4.00;;;13.10;63.00;;;;;;5041109;28;20104;-70
2021/12/24 00:03:45;;;;;;;5.07;3.50;;;;;;;;;;5033148;28;20136;-70
2021/12/24 00:06:12;;;;;;;4.97;3.47;;;13.40;62.90;;;;;;5032881;28;20465;-70
2021/12/24 00:08:39;;;;;;;4.55;3.45;;;13.20;63.10;;;;;;5032619;28;20701;-70
2021/12/24 00:11:06;;;;;;;5.03;3.47;;;13.10;62.80;;;;;;5033112;28;20451;-70
2021/12/24 00:13:36;;;;;;;4.93;3.70;;;13.20;63.20;;;;;;5032917;28;20136;-70
2021/12/24 00:16:09;;;;;;;5.63;3.72;;;12.90;58.00;;;;;;5039685;28;20497;-70
2021/12/24 00:18:45;;;;;;;4.03;3.38;;;;;;;;;;5053395;28;20041;-70
2021/12/24 00:35:16;;;;;;;3.63;3.00;;;12.90;63.40;;;;;;5052489;28;20503;-70
2021/12/24 00:37:43;;;;;;;4.47;3.13;;;12.90;54.20;;;;;;5052040;28;20084;-70
2021/12/24 00:40:17;;;;;;;3.72;3.10;;;12.90;63.50;;;;;;5052137;28;20489;-70
2021/12/24 00:42:46;;;;;;;5.53;3.65;;;12.70;61.40;;;;;;5052151;28;20053;-70
2021/12/24 00:45:15;;;;;;;4.57;3.30;;;12.80;63.40;;;;;;5052351;28;20490;-70
2021/12/24 00:47:42;;;;;;;4.47;3.10;;;12.90;61.60;;;;;;5052449;28;20076;-70
2021/12/24 00:50:13;;;;;;;5.55;3.50;;;12.90;63.50;;;;;;5051874;28;20523;-70
2021/12/24 00:52:49;;;;;;;5.63;3.45;;;13.00;54.90;;;;;;5051988;28;20053;-70
2021/12/24 00:55:15;;;;;;;4.60;3.70;;;13.20;63.60;;;;;;5052182;28;20068;-70
2021/12/24 00:57:43;;;;;;;3.53;3.03;;;13.30;56.40;;;;;;5051816;28;20045;-70
2021/12/24 01:00:14;;;;;;;4.32;3.47;;;13.20;55.70;;;;;;5051946;28;20112;-70
2021/12/24 01:02:41;;;;;;;4.70;3.28;;;12.90;63.10;;;;;;5051567;28;20132;-70
2021/12/24 01:05:08;;;;;;;4.18;3.10;;;12.40;63.10;;;;;;5051860;28;20132;-70
2021/12/24 01:07:35;;;;;;;4.40;3.30;;;12.90;63.50;;;;;;5052783;28;20140;-70
2021/12/24 01:10:01;;;;;;;5.03;3.50;;;12.80;63.60;;;;;;5051783;28;20155;-70
2021/12/24 01:12:28;;;;;;;4.25;3.25;;;;;;;;;;5051568;28;20087;-70
2021/12/24 01:14:55;;;;;;;4.88;3.55;;;12.80;63.60;;;;;;5051738;28;20559;-70
2021/12/24 01:17:33;;;;;;;4.82;3.50;;;12.80;63.70;;;;;;5051444;28;20136;-70
2021/12/24 01:20:06;;;;;;;4.10;3.40;;;12.70;63.70;;;;;;5051093;28;20053;-70
2021/12/24 01:25:34;;;;;;;4.47;3.38;;;12.80;63.80;;;;;;5047785;28;20049;-70
2021/12/24 01:28:29;;;;;;;4.00;3.22;;;;;;;;;;5031631;28;20053;-70
2021/12/24 01:39:15;;;;;;;4.38;2.90;;;12.60;62.20;;;;;;5051020;28;20053;-70
2021/12/24 01:44:27;;;;;;;4.07;3.17;;;12.40;62.60;;;;;;5050792;28;20057;-70
2021/12/24 01:46:58;;;;;;;3.80;3.17;;;12.50;63.60;;;;;;5052026;28;20056;-70
2021/12/24 01:49:26;;;;;;;3.72;2.90;;;12.50;63.60;;;;;;5051089;28;20053;-70
2021/12/24 01:51:53;;;;;;;4.32;3.15;;;12.60;63.90;;;;;;5051128;28;20132;-70
2021/12/24 01:54:20;;;;;;;3.95;3.00;;;12.90;60.70;;;;;;5051902;28;20124;-70
2021/12/24 01:56:47;;;;;;;3.72;3.00;;;12.50;63.70;;;;;;5050810;28;20135;-70
2021/12/24 01:59:14;;;;;;;4.20;2.95;;;12.40;59.10;;;;;;5050468;28;20469;-70
2021/12/24 02:01:41;;;;;;;3.40;2.85;;;12.80;64.10;;;;;;5050532;28;20127;-70
2021/12/24 02:04:11;;;;;;;3.75;3.00;;;12.60;54.70;;;;;;5050977;28;20132;-70
2021/12/24 02:06:39;;;;;;;4.13;3.22;;;12.60;57.00;;;;;;5050771;28;20061;-70
2021/12/24 02:09:06;;;;;;;4.32;3.20;;;12.70;57.40;;;;;;5050432;28;20053;-70
2021/12/24 02:11:37;;;;;;;3.58;2.83;;;12.60;63.80;;;;;;5050758;28;20140;-70
2021/12/24 02:14:04;;;;;;;4.28;3.20;;;;;;;;;;5050778;28;20052;-70
2021/12/24 02:16:43;;;;;;;4.10;3.00;;;12.50;63.90;;;;;;5050737;28;20444;-70
2021/12/24 02:30:09;;;;;;;3.60;2.60;;;12.70;64.10;;;;;;5050470;28;20053;-70
2021/12/24 02:32:35;;;;;;;3.33;2.90;;;13.00;64.20;;;;;;5050686;28;20140;-70
2021/12/24 02:35:02;;;;;;;3.03;2.67;;;12.70;64.00;;;;;;5050656;28;20135;-70
2021/12/24 02:37:30;;;;;;;3.60;2.85;;;12.60;59.10;;;;;;5050346;28;20468;-70
2021/12/24 02:39:57;;;;;;;3.17;2.50;;;12.60;58.30;;;;;;5050449;28;20056;-70
2021/12/24 02:42:23;;;;;;;2.97;2.45;;;12.60;63.90;;;;;;5050345;28;20055;-70
2021/12/24 02:44:51;;;;;;;3.60;2.63;;;12.50;56.00;;;;;;5050311;28;20071;-70
2021/12/24 02:47:39;;;;;;;3.10;2.65;;;12.70;64.00;;;;;;5049900;28;20087;-70
2021/12/24 02:55:37;;;;;;;2.72;2.40;;;12.30;63.50;;;;;;5050382;28;20490;-70
2021/12/24 02:58:03;;;;;;;3.05;2.40;;;12.40;60.30;;;;;;5055326;28;20045;-70
2021/12/24 03:00:30;;;;;;;3.30;2.60;;;12.70;63.80;;;;;;5053932;28;20080;-70
2021/12/24 03:02:57;;;;;;;3.83;2.63;;;12.60;63.80;;;;;;5054048;28;20553;-70
2021/12/24 03:05:24;;;;;;;2.88;2.22;;;12.90;59.20;;;;;;5054001;28;20410;-70
2021/12/24 03:07:52;;;;;;;2.85;2.30;;;12.80;54.50;;;;;;5055245;28;20557;-70
2021/12/24 03:10:20;;;;;;;2.55;2.33;;;12.80;54.50;;;;;;5050528;28;20049;-70
2021/12/24 03:12:48;;;;;;;2.50;2.20;;;12.90;54.50;;;;;;5034061;28;20080;-70
2021/12/24 03:15:16;;;;;;;2.85;2.30;;;13.00;63.90;;;;;;5033878;28;20068;-70
2021/12/24 03:17:48;;;;;;;3.40;2.30;;;12.80;63.70;;;;;;5050220;28;20498;-70
2021/12/24 03:20:15;;;;;;;2.92;2.20;;;12.80;63.50;;;;;;5033759;28;20046;-70
2021/12/24 03:22:48;;;;;;;2.50;2.28;;;;;;;;;;5034808;28;20605;-70
2021/12/24 03:25:17;;;;;;;2.80;2.38;;;13.00;63.70;;;;;;5038026;28;20056;-70
2021/12/24 03:27:43;;;;;;;2.90;2.20;;;13.10;63.80;;;;;;5053632;28;20164;-70
2021/12/24 03:30:11;;;;;;;2.58;2.10;;;12.70;60.00;;;;;;5053439;28;20059;-70
2021/12/24 03:32:37;;;;;;;2.92;2.30;;;13.00;63.60;;;;;;5053293;28;20131;-70
2021/12/24 03:35:05;;;;;;;2.65;2.25;;;13.10;61.50;;;;;;5053360;28;20055;-70
2021/12/24 03:37:32;;;;;;;2.95;2.22;;;;;;;;;;5053441;28;20713;-70
2021/12/24 03:39:59;;;;;;;2.90;2.20;;;12.60;63.00;;;;;;5053163;28;20135;-70
2021/12/24 03:42:27;;;;;;;3.00;2.20;;;13.50;63.50;;;;;;5050047;28;20132;-70
2021/12/24 03:45:04;;;;;;;2.83;2.10;;;12.90;63.40;;;;;;5045288;28;20056;-70
2021/12/24 03:47:36;;;;;;;2.30;1.90;;;;;;;;;;5053060;28;20106;-70
2021/12/24 03:50:07;;;;;;;2.28;1.92;;;12.40;59.60;;;;;;5053436;28;20056;-70
2021/12/24 03:52:50;;;;;;;2.25;1.90;;;12.40;63.00;;;;;;5053492;28;20057;-70
2021/12/24 03:55:16;;;;;;;2.10;1.80;;;12.40;60.60;;;;;;5053135;28;20143;-70
2021/12/24 03:57:44;;;;;;;2.30;1.83;;;13.00;60.90;;;;;;5052808;28;20573;-70
2021/12/24 04:00:14;;;;;;;2.20;2.00;;;13.20;59.00;;;;;;5052928;28;20136;-70
2021/12/24 04:02:41;;;;;;;2.65;2.13;;;13.10;58.30;;;;;;5053190;28;20533;-70
2021/12/24 04:05:08;;;;;;;2.22;1.80;;;12.50;62.90;;;;;;5053071;28;20156;-70
2021/12/24 04:07:35;;;;;;;2.28;1.83;;;13.20;63.20;;;;;;5052356;28;20048;-70
2021/12/24 04:10:05;;;;;;;1.90;1.67;;;13.30;63.20;;;;;;5052970;28;20132;-70
2021/12/24 04:12:34;;;;;;;2.08;1.83;;;13.20;63.40;;;;;;5052690;28;20060;-70
2021/12/24 04:15:02;;;;;;;2.17;1.80;;;13.20;63.20;;;;;;5052922;28;20063;-70
2021/12/24 04:17:31;;;;;;;2.33;1.70;;;12.70;63.10;;;;;;5053284;28;20733;-70
2021/12/24 04:25:27;;;;;;;2.13;1.83;;;13.10;63.40;;;;;;5052641;28;20503;-70
2021/12/24 04:27:57;;;;;;;2.38;1.92;;;12.80;63.10;;;;;;5052540;28;20088;-70
2021/12/24 04:30:29;;;;;;;1.90;1.60;;;13.20;54.10;;;;;;5053590;28;20045;-70
2021/12/24 04:33:01;;;;;;;2.13;1.63;;;;;;;;;;5048797;28;20437;-70
2021/12/24 04:35:42;;;;;;;2.13;1.60;;;13.20;57.30;;;;;;5032445;28;20084;-70
2021/12/24 04:51:57;;;;;;;2.25;1.75;;;13.10;63.10;;;;;;5049017;28;20081;-70
2021/12/24 05:02:51;;;;;;;2.55;1.70;;;13.40;63.00;;;;;;5031980;28;20140;-70
2021/12/24 05:05:22;;;;;;;1.70;1.50;;;;;;;;;;5033117;28;20072;-70
2021/12/24 05:10:37;;;;;;;1.67;1.42;;;13.10;62.90;;;;;;5051897;28;20509;-70
2021/12/24 05:13:05;;;;;;;1.75;1.42;;;13.30;63.00;;;;;;5031842;28;20053;-70
2021/12/24 05:15:34;;;;;;;1.85;1.50;;;13.00;63.00;;;;;;5031537;28;20088;-70
2021/12/24 05:18:14;;;;;;;1.58;1.48;;;13.10;57.30;;;;;;5031621;28;20057;-70
2021/12/24 05:23:25;;;;;;;2.00;1.70;;;13.20;62.90;;;;;;5038797;28;20506;-70
2021/12/24 05:25:52;;;;;;;1.60;1.30;;;13.30;63.20;;;;;;5051391;28;20131;-70
2021/12/24 05:28:19;;;;;;;2.40;1.60;;;;;;;;;;5051072;28;20110;-70
2021/12/24 05:30:46;;;;;;;1.88;1.50;;;13.40;62.90;;;;;;5051467;28;20059;-70
2021/12/24 05:33:16;;;;;;;1.80;1.42;;;13.40;56.20;;;;;;5051456;28;20577;-70
2021/12/24 05:35:43;;;;;;;1.83;1.50;;;13.40;62.90;;;;;;5051250;28;20052;-70
2021/12/24 05:38:10;;;;;;;1.83;1.60;;;13.30;62.90;;;;;;5051036;28;20048;-70
2021/12/24 05:40:37;;;;;;;1.85;1.45;;;;;;;;;;5047515;28;20060;-70
2021/12/24 05:43:04;;;;;;;1.92;1.50;;;13.20;62.70;;;;;;5031398;28;20545;-70
2021/12/24 05:45:31;;;;;;;1.67;1.45;;;13.10;62.70;;;;;;5032233;28;20141;-70
2021/12/24 05:47:57;;;;;;;1.50;1.35;;;13.50;56.70;;;;;;5031293;28;20136;-70
2021/12/24 05:50:26;;;;;;;1.88;1.40;;;13.40;63.00;;;;;;5031551;28;20056;-70
2021/12/24 05:52:52;;;;;;;2.28;1.35;;;13.50;63.10;;;;;;5031319;28;20569;-70
2021/12/24 05:55:19;;;;;;;2.13;1.40;;;13.40;63.00;;;;;;5031188;28;20132;-70
2021/12/24 05:57:46;;;;;;;1.90;1.50;;;13.30;55.70;;;;;;5035495;28;20049;-70
2021/12/24 06:00:13;;;;;;;2.03;1.50;;;12.80;62.70;;;;;;5047234;28;20136;-70
2021/12/24 06:02:40;;;;;;;1.70;1.40;;;12.70;62.70;;;;;;5030656;28;20057;-70
2021/12/24 06:05:07;;;;;;;1.67;1.50;;;13.50;63.00;;;;;;5031077;28;20064;-70
2021/12/24 06:07:35;;;;;;;1.60;1.33;;;13.50;61.00;;;;;;5030876;28;20160;-70
2021/12/24 06:10:02;;;;;;;1.88;1.50;;;13.40;60.30;;;;;;5047398;28;20553;-70
2021/12/24 06:12:29;;;;;;;1.75;1.30;;;13.50;63.20;;;;;;5030990;28;20144;-70
2021/12/24 06:15:02;;;;;;;2.00;1.60;;;13.30;62.90;;;;;;5047292;28;20144;-70
2021/12/24 06:17:28;;;;;;;2.88;1.50;;;13.30;62.80;;;;;;5047367;28;20049;-70
2021/12/24 06:19:55;;;;;;;1.52;1.40;;;13.40;63.00;;;;;;5047346;28;20060;-70
2021/12/24 06:22:22;;;;;;;2.00;1.50;;;;;;;;;;5031945;28;20573;-70
2021/12/24 06:24:50;;;;;;;1.98;1.60;;;13.60;63.00;;;;;;5030785;28;20160;-70
2021/12/24 06:27:17;;;;;;;1.83;1.50;;;13.40;62.90;;;;;;5047238;28;20140;-70
2021/12/24 06:29:44;;;;;;;1.75;1.50;;;13.20;63.00;;;;;;5032198;28;20140;-70
2021/12/24 06:32:11;;;;;;;1.90;1.30;;;;;;;;;;5054577;28;20475;-71
2021/12/24 06:34:38;;;;;;;2.13;1.40;;;;;;;;;;5054866;28;20057;-70
2021/12/24 06:37:05;;;;;;;1.67;1.42;;;13.60;55.20;;;;;;5054343;28;20135;-70
2021/12/24 06:39:32;;;;;;;1.92;1.48;;;13.40;62.90;;;;;;5055415;28;20049;-70
2021/12/24 06:42:00;;;;;;;2.47;1.50;;;13.60;57.30;;;;;;5054601;28;20136;-70
2021/12/24 06:44:27;;;;;;;1.88;1.40;;;;;;;;;;5054668;28;20136;-70
2021/12/24 06:46:54;;;;;;;1.55;1.38;;;13.80;63.30;;;;;;5055269;28;20076;-70
2021/12/24 06:49:21;;;;;;;1.80;1.42;;;;;;;;;;5054256;28;20045;-70
2021/12/24 06:51:48;;;;;;;1.70;1.20;;;13.50;63.10;;;;;;5054569;28;20159;-70
2021/12/24 06:54:14;;;;;;;1.50;1.40;;;13.60;63.20;;;;;;5054540;28;20132;-70
2021/12/24 06:56:41;;;;;;;1.65;1.40;;;;;;;;;;5053857;28;20135;-70
2021/12/24 06:59:09;;;;;;;1.85;1.40;;;14.60;63.50;;;;;;5054216;28;20132;-70
2021/12/24 07:01:36;;;;;;;1.65;1.40;;;13.70;63.00;;;;;;5055031;28;20059;-70
2021/12/24 07:04:03;;;;;;;1.67;1.35;;;;;;;;;;5055330;28;20131;-69
2021/12/24 07:06:30;;;;;;;2.10;1.40;;;;;;;;;;5055111;28;20048;-70
2021/12/24 07:08:59;;;;;;;1.40;1.30;;;13.50;54.20;;;;;;5055230;28;20041;-70
2021/12/24 07:11:26;;;;;;;1.95;1.45;;;13.60;60.50;;;;;;5053993;28;20504;-70
2021/12/24 07:13:53;;;;;;;1.80;1.50;;;13.50;62.90;;;;;;5054867;28;20048;-70
2021/12/24 07:16:21;;;;;;;1.75;1.30;;;13.50;54.20;;;;;;5053852;28;20128;-70
2021/12/24 07:18:47;;;;;;;2.40;1.30;;;13.60;63.20;;;;;;5050391;28;20133;-69
2021/12/24 07:21:14;;;;;;;1.48;1.15;;;13.40;58.90;;;;;;5033878;28;20141;-70
2021/12/24 07:23:41;;;;;;;1.77;1.40;;;13.70;63.30;;;;;;5033525;28;20054;-70
2021/12/24 07:26:08;;;;;;;2.33;1.60;;;;;;;;;;5033495;28;20137;-70
2021/12/24 07:28:35;;;;;;;1.55;1.20;;;13.70;63.10;;;;;;5033835;28;20063;-70
2021/12/24 07:31:01;;;;;;;2.22;1.50;;;13.60;62.90;;;;;;5033988;28;20154;-70
2021/12/24 07:33:29;;;;;;;1.70;1.27;;;14.10;54.50;;;;;;5043861;28;20133;-70
2021/12/24 07:35:56;;;;;;;1.80;1.25;;;;;;;;;;5054518;28;20127;-70
2021/12/24 07:38:23;;;;;;;2.08;1.40;;;13.70;63.20;;;;;;5054938;28;20044;-70
2021/12/24 07:40:50;;;;;;;1.83;1.40;;;13.70;62.90;;;;;;5054270;28;20140;-70
2021/12/24 07:43:17;;;;;;;1.50;1.30;;;13.60;59.40;;;;;;5052867;28;20111;-70
2021/12/24 07:45:45;;;;;;;1.95;1.33;;;14.00;63.10;;;;;;5053387;28;20139;-70
2021/12/24 07:48:13;;;;;;;2.20;1.50;;;13.60;63.20;;;;;;5053503;28;20060;-70
2021/12/24 07:53:26;;;;;;;1.77;1.30;;;;;;;;;;5034532;28;20081;-70
2021/12/24 07:55:56;;;;;;;2.03;1.30;;;13.70;62.90;;;;;;5036172;28;20049;-69
2021/12/24 07:58:23;;;;;;;1.60;1.30;;;;;;;;;;5053293;28;20449;-70
2021/12/24 08:00:51;;;;;;;1.52;1.30;;;13.70;63.00;;;;;;5052124;28;20045;-67
2021/12/24 08:03:17;;;;;;;1.70;1.25;;;13.80;63.00;;;;;;5051922;28;20057;-69
2021/12/24 08:05:48;;;;;;;3.13;1.40;;;13.70;63.10;;;;;;5049527;28;20100;-69
2021/12/24 08:08:15;;;;;;;1.90;1.20;;;13.60;59.10;;;;;;5053131;28;20045;-69
2021/12/24 08:10:42;;;;;;;2.17;1.40;;;13.30;62.70;;;;;;5051987;28;20045;-69
2021/12/24 08:13:09;;;;;;;2.17;1.38;;;13.70;63.00;;;;;;5053244;28;20048;-70
2021/12/24 08:15:35;;;;;;;2.50;1.40;;;13.80;59.40;;;;;;5053626;28;20071;-68
2021/12/24 08:18:02;;;;;;;2.50;1.50;;;13.40;63.10;;;;;;5052884;28;20124;-68
2021/12/24 08:20:29;;;;;;;3.25;1.80;;;14.00;63.40;;;;;;5053817;28;20151;-68
2021/12/24 08:22:57;;;;;;;3.50;1.40;;;13.90;60.50;;;;;;5051937;28;20131;-68
2021/12/24 08:25:24;;;;;;;4.55;1.50;;;13.90;60.30;;;;;;5053400;28;20056;-70
2021/12/24 08:27:51;;;;;;;2.95;1.67;;;13.90;63.50;;;;;;5049750;28;20132;-70
2021/12/24 08:30:18;;;;;;;1.92;1.38;;;;;;;;;;5053723;28;20075;-71
2021/12/24 08:32:44;;;;;;;2.78;1.40;;;14.30;63.40;;;;;;5052450;28;20128;-70
2021/12/24 08:35:12;;;;;;;3.67;1.70;;;;;;;;;;5052568;28;20146;-70
2021/12/24 08:37:39;;;;;;;3.20;1.50;;;14.20;63.40;;;;;;5053488;28;20386;-70
2021/12/24 08:40:08;;;;;;;3.22;1.40;;;14.20;63.40;;;;;;5048831;28;20058;-70
2021/12/24 08:42:35;;;;;;;2.92;1.80;;;15.00;63.70;;;;;;5032327;28;20049;-70
2021/12/24 08:45:02;;;;;;;1.95;1.38;;;14.40;63.10;;;;;;5032500;28;20136;-70
2021/12/24 08:47:28;;;;;;;2.65;1.50;;;13.80;62.80;;;;;;5031963;28;20144;-70
2021/12/24 08:49:55;;;;;;;2.15;1.40;;;15.10;63.70;;;;;;5032121;28;20474;-70
2021/12/24 08:52:22;;;;;;;3.33;1.40;;;;;;;;;;5032347;28;20128;-70
2021/12/24 08:54:49;;;;;;;1.92;1.33;;;14.40;62.90;;;;;;5031240;28;20089;-70
2021/12/24 08:57:17;;;;;;;2.65;1.30;;;14.60;63.00;;;;;;5037009;28;20136;-70
2021/12/24 08:59:47;;;;;;;1.95;1.30;;;14.40;61.40;;;;;;5031536;28;20049;-71
2021/12/24 09:02:13;;;;;;;3.15;1.50;;;13.70;62.40;;;;;;5049124;28;20171;-70
2021/12/24 09:04:40;;;;;;;1.98;1.17;;;14.60;62.80;;;;;;5051989;28;20139;-70
2021/12/24 09:07:07;;;;;;;2.47;1.40;;;15.40;59.50;;;;;;5051542;28;20132;-69
2021/12/24 09:09:33;;;;;;;2.85;1.58;;;14.60;62.80;;;;;;5051451;28;20492;-69
2021/12/24 09:12:00;;;;;;;3.20;1.33;;;14.90;63.20;;;;;;5051646;28;20049;-69
2021/12/24 09:14:28;;;;;;;8.95;1.60;;;14.50;59.00;;;;;;5048207;28;20470;-69
2021/12/24 09:16:55;;;;;;;10.13;2.53;;;15.40;59.20;;;;;;5031528;28;20136;-69
2021/12/24 09:19:26;;;;;;;8.85;2.25;;;15.50;64.90;;;;;;5031719;28;20108;-69
2021/12/24 09:21:55;;;;;;;4.05;1.63;;;13.60;64.20;;;;;;5038983;28;20059;-69
2021/12/24 09:24:23;;;;;;;8.05;2.03;;;14.60;65.30;;;;;;5051322;28;20059;-68
2021/12/24 09:26:54;;;;;;;5.45;1.90;;;14.60;65.40;;;;;;5051335;28;20107;-69
2021/12/24 09:29:23;;;;;;;7.47;1.88;;;14.70;65.90;;;;;;5051329;28;20736;-69
2021/12/24 09:31:51;;;;;;;6.10;1.98;;;14.90;65.60;;;;;;5052491;28;20045;-69
2021/12/24 09:34:19;;;;;;;4.68;1.60;;;;;;;;;;5049826;28;20132;-70
2021/12/24 09:36:46;;;;;;;5.80;1.70;;;;;;;;;;5047437;28;20064;-71
2021/12/24 09:39:14;;;;;;;6.35;1.40;;;15.00;65.70;;;;;;5047583;28;20136;-67
2021/12/24 09:41:40;;;;;;;3.72;1.70;;;14.90;65.70;;;;;;5030971;28;20049;-70
2021/12/24 09:44:08;;;;;;;3.42;1.50;;;14.90;65.80;;;;;;5031284;28;20132;-71
2021/12/24 09:46:36;;;;;;;4.05;1.60;;;14.80;58.20;;;;;;5034950;28;20049;-70
2021/12/24 09:49:04;;;;;;;5.80;1.52;;;15.00;65.90;;;;;;5050806;28;20139;-70
2021/12/24 09:51:34;;;;;;;3.92;1.58;;;14.90;57.40;;;;;;5047087;28;20053;-71
2021/12/24 09:54:01;;;;;;;4.72;1.63;;;15.00;65.70;;;;;;5030900;28;20136;-69
2021/12/24 09:56:28;;;;;;;3.65;1.77;;;14.50;62.70;;;;;;5043043;28;20136;-70
2021/12/24 09:58:55;;;;;;;4.28;1.60;;;;;;;;;;5047022;28;20140;-70
2021/12/24 10:01:28;;;;;;;2.95;1.17;;;13.90;57.80;;;;;;5032138;28;20509;-70
2021/12/24 10:04:02;;;;;;;4.03;1.58;;;15.70;65.70;;;;;;5031215;28;20092;-70
2021/12/24 10:06:30;;;;;;;3.08;1.58;;;15.00;65.40;;;;;;5045729;28;20057;-70
2021/12/24 10:09:00;;;;;;;2.05;1.30;;;15.10;65.40;;;;;;5052074;28;20463;-70
2021/12/24 10:11:29;;;;;;;2.10;1.23;;;15.90;65.60;;;;;;5050597;28;20053;-70
2021/12/24 10:13:58;;;;;;;4.38;1.50;;;14.60;64.80;;;;;;5051610;28;20047;-70
2021/12/24 10:16:27;;;;;;;2.88;1.23;;;;;;;;;;5050494;28;20544;-70
2021/12/24 10:18:54;;;;;;;5.05;1.40;;;14.30;64.80;;;;;;5050217;28;20049;-70
2021/12/24 10:21:23;;;;;;;3.33;1.35;;;15.90;65.70;;;;;;5050292;28;20549;-70
2021/12/24 10:23:53;;;;;;;2.42;1.40;;;15.10;65.30;;;;;;5050763;28;20057;-70
2021/12/24 10:26:25;;;;;;;1.63;1.10;;;15.10;65.10;;;;;;5050388;28;20052;-70
2021/12/24 10:28:57;;;;;;;2.60;1.30;;;15.20;65.00;;;;;;5050657;28;20091;-71
2021/12/24 10:31:25;;;;;;;2.88;1.10;;;15.00;65.00;;;;;;5048804;28;20052;-71
2021/12/24 10:34:12;;;;;;;3.40;1.27;;;15.10;64.80;;;;;;5050211;28;20478;-71
2021/12/24 10:37:01;;;;;;;3.13;1.20;;;15.00;56.70;;;;;;5047497;28;20123;-71
2021/12/24 10:39:30;;;;;;;1.60;1.17;;;15.10;64.60;;;;;;5065567;28;20445;-71
2021/12/24 10:41:58;;;;;;;3.47;1.70;;;15.40;58.80;;;;;;5047471;28;20454;-71
2021/12/24 10:44:25;;;;;;;1.90;1.20;;;14.90;64.80;;;;;;5050068;28;20136;-71
2021/12/24 10:47:00;;;;;;;4.13;2.00;;;15.20;64.90;;;;;;5049672;28;20135;-71
2021/12/24 10:49:48;;;;;;;1.83;1.20;;;;;;;;;;5046347;28;20463;-72
2021/12/24 10:52:29;;;;;;;1.95;1.08;;;;;;;;;;5041373;28;20046;-70
2021/12/24 10:54:58;;;;;;;1.65;1.23;;;14.50;59.40;;;;;;5039142;28;20064;-71
2021/12/24 10:57:26;;;;;;;2.35;1.35;;;15.10;56.60;;;;;;5040582;28;20130;-71
2021/12/24 10:59:54;;;;;;;3.17;1.13;;;15.30;64.70;;;;;;5030007;28;20137;-70
2021/12/24 11:02:22;;;;;;;2.10;1.10;;;15.40;64.90;;;;;;5043725;28;20052;-70
2021/12/24 11:04:48;;;;;;;3.05;1.30;;;15.40;64.90;;;;;;5047401;28;20053;-70
2021/12/24 11:07:34;;;;;;;1.27;1.00;;;15.20;64.80;;;;;;5049574;28;20156;-70
2021/12/24 11:10:13;;;;;;;2.50;1.10;;;15.10;64.60;;;;;;5050166;28;20049;-70
2021/12/24 11:12:42;;;;;;;2.80;1.23;;;14.10;60.00;;;;;;5050319;28;20139;-71
2021/12/24 11:15:26;;;;;;;1.60;1.10;;;15.30;64.50;;;;;;5050060;28;20102;-70
2021/12/24 11:17:54;;;;;;;1.45;1.00;;;15.30;64.50;;;;;;5052645;28;20139;-70
2021/12/24 11:20:21;;;;;;;1.90;1.20;;;;;;;;;;5051287;28;20132;-71
2021/12/24 11:22:57;;;;;;;2.08;1.25;;;15.30;58.20;;;;;;5052546;28;20537;-72
2021/12/24 11:25:27;;;;;;;2.30;1.00;;;15.20;56.40;;;;;;5052688;28;20057;-73
2021/12/24 11:27:54;;;;;;;1.08;0.90;;;15.20;64.60;;;;;;5043060;28;20057;-70
2021/12/24 11:30:21;;;;;;;2.30;1.10;;;14.80;63.90;;;;;;5034454;28;20140;-72
2021/12/24 11:32:49;;;;;;;1.75;1.15;;;;;;;;;;5033042;28;20053;-70
2021/12/24 11:35:15;;;;;;;1.38;1.10;;;15.30;62.10;;;;;;5033219;28;20521;-71
2021/12/24 11:37:44;;;;;;;1.38;1.10;;;;;;;;;;5040759;28;20056;-71
2021/12/24 11:40:11;;;;;;;2.20;1.33;;;15.30;56.20;;;;;;5052806;28;20053;-71
2021/12/24 11:42:40;;;;;;;2.85;1.00;;;15.30;56.30;;;;;;5053253;28;20064;-70
2021/12/24 11:45:07;;;;;;;1.52;1.02;;;15.30;56.20;;;;;;5052492;28;20056;-71
2021/12/24 11:47:34;;;;;;;1.88;1.08;;;15.40;56.80;;;;;;5052903;28;20485;-72
2021/12/24 11:50:01;;;;;;;1.67;1.00;;;;;;;;;;5051967;28;20078;-70
2021/12/24 11:52:28;;;;;;;1.20;1.00;;;15.50;64.40;;;;;;5052407;28;20140;-72
2021/12/24 11:54:55;;;;;;;1.80;1.23;;;14.60;64.00;;;;;;5052564;28;20216;-72
2021/12/24 11:57:22;;;;;;;2.17;1.30;;;;;;;;;;5051514;28;20058;-70
2021/12/24 11:59:50;;;;;;;1.38;1.13;;;14.70;59.40;;;;;;5052676;28;20060;-72
2021/12/24 12:02:36;;;;;;;1.73;1.02;;;15.10;59.50;;;;;;5051571;28;20045;-72
2021/12/24 12:05:22;;;;;;;4.25;1.20;;;15.40;64.10;;;;;;5049397;28;20051;-72
2021/12/24 12:07:49;;;;;;;1.65;1.13;;;;;;;;;;5048970;28;20148;-71
2021/12/24 12:10:40;;;;;;;1.40;1.10;;;15.10;63.90;;;;;;5050523;28;20128;-72
2021/12/24 12:13:12;;;;;;;1.60;1.02;;;15.20;64.10;;;;;;5048908;28;20060;-71
2021/12/24 12:15:43;;;;;;;1.55;1.10;;;15.00;61.80;;;;;;5049563;28;20050;-72
2021/12/24 12:18:11;;;;;;;1.17;1.00;;;15.40;60.50;;;;;;5043522;28;20065;-75
2021/12/24 12:20:46;;;;;;;1.10;1.00;;;14.30;63.80;;;;;;5052478;28;20049;-72
2021/12/24 12:23:45;;;;;;;1.83;1.00;;;15.40;64.40;;;;;;5052440;28;20085;-72
2021/12/24 12:26:34;;;;;;;1.27;1.00;;;15.30;62.90;;;;;;5046217;28;20053;-73
2021/12/24 12:29:32;;;;;;;1.42;1.05;;;15.40;64.10;;;;;;5032377;28;20132;-72
2021/12/24 12:32:05;;;;;;;1.17;1.00;;;15.20;64.30;;;;;;5025815;28;20056;-72
2021/12/24 12:34:54;;;;;;;1.30;1.10;;;15.30;56.10;;;;;;5052141;28;20059;-71
2021/12/24 12:37:22;;;;;;;3.20;1.20;;;14.90;64.10;;;;;;5052129;28;20132;-71
2021/12/24 12:39:50;;;;;;;1.60;1.00;;;15.30;64.20;;;;;;5051232;28;20429;-71
2021/12/24 12:42:17;;;;;;;1.65;0.90;;;15.30;61.70;;;;;;5052293;28;20562;-71
2021/12/24 12:44:46;;;;;;;1.00;0.90;;;15.20;57.10;;;;;;5049059;28;20115;-71
2021/12/24 12:47:15;;;;;;;1.52;1.00;;;15.20;64.20;;;;;;5031992;28;20084;-71
2021/12/24 12:49:42;;;;;;;1.70;1.10;;;;;;;;;;5031849;28;20108;-72
2021/12/24 12:52:13;;;;;;;1.88;1.10;;;15.30;64.20;;;;;;5032424;28;20080;-71
2021/12/24 12:54:41;;;;;;;2.22;0.95;;;15.30;64.30;;;;;;5049234;28;20053;-71
2021/12/24 12:57:27;;;;;;;1.80;1.00;;;15.30;63.90;;;;;;5050963;28;20084;-72
2021/12/24 13:00:30;;;;;;;1.20;1.02;;;15.20;64.00;;;;;;5050172;28;20085;-72
2021/12/24 13:03:10;;;;;;;1.05;0.95;;;15.20;60.90;;;;;;5048482;28;20089;-72
2021/12/24 13:05:57;;;;;;;1.15;0.90;;;15.20;56.10;;;;;;5050780;28;20054;-72
2021/12/24 13:08:25;;;;;;;1.10;1.00;;;15.10;64.10;;;;;;5048127;28;20128;-71
2021/12/24 13:10:56;;;;;;;1.20;1.00;;;15.10;64.30;;;;;;5051422;28;20048;-71
2021/12/24 13:13:22;;;;;;;1.52;1.08;;;15.20;64.50;;;;;;5049430;28;20059;-71
2021/12/24 13:15:49;;;;;;;0.90;0.90;;;15.00;61.20;;;;;;5050161;28;20136;-71
2021/12/24 13:18:25;;;;;;;1.00;0.90;;;14.40;56.30;;;;;;5047708;28;20100;-71
2021/12/24 13:23:33;;;;;;;1.27;0.90;;;14.50;64.20;;;;;;5049623;28;20147;-72
2021/12/24 13:26:07;;;;;;;1.17;0.90;;;14.50;59.60;;;;;;5031511;28;20132;-72
2021/12/24 13:28:34;;;;;;;1.30;1.00;;;15.60;65.10;;;;;;5038377;28;20131;-72
2021/12/24 13:31:13;;;;;;;1.05;0.95;;;14.90;64.50;;;;;;5050034;28;20390;-72
2021/12/24 13:33:41;;;;;;;1.17;1.00;;;15.10;64.10;;;;;;5048922;28;20052;-72
2021/12/24 13:36:08;;;;;;;1.15;1.00;;;14.90;64.30;;;;;;5049907;28;20147;-72
2021/12/24 13:38:34;;;;;;;1.15;1.05;;;14.90;64.20;;;;;;5050194;28;20056;-72
2021/12/24 13:41:01;;;;;;;1.00;0.90;;;;;;;;;;5049892;28;20063;-72
2021/12/24 13:43:28;;;;;;;1.10;1.00;;;14.10;63.80;;;;;;5049456;28;20052;-72
2021/12/24 13:45:56;;;;;;;1.35;0.90;;;14.80;64.20;;;;;;5049081;28;20148;-72
2021/12/24 13:48:28;;;;;;;0.80;0.77;;;14.80;56.50;;;;;;5049757;28;20049;-72
2021/12/24 13:56:17;;;;;;;3.08;1.10;;;14.80;64.80;;;;;;5042069;28;20486;-72
2021/12/24 13:58:49;;;;;;;2.22;1.15;;;15.20;64.70;;;;;;5047662;28;20132;-72
2021/12/24 14:01:16;;;;;;;1.67;1.10;;;;;;;;;;5045223;28;20084;-72
2021/12/24 14:03:44;;;;;;;1.40;1.00;;;;;;;;;;5054169;28;20565;-72
2021/12/24 14:06:12;;;;;;;1.23;0.90;;;15.00;56.80;;;;;;5050220;28;20557;-72
2021/12/24 14:08:39;;;;;;;1.50;0.90;;;14.60;59.50;;;;;;5050349;28;20124;-69
2021/12/24 14:11:10;;;;;;;1.23;1.00;;;14.50;56.60;;;;;;5051615;28;20044;-69
2021/12/24 14:13:40;;;;;;;1.20;0.95;;;14.50;58.40;;;;;;5047597;28;20507;-70
2021/12/24 14:16:31;;;;;;;1.13;0.90;;;14.60;64.50;;;;;;5050754;28;20147;-68
2021/12/24 14:19:09;;;;;;;0.98;0.88;;;14.50;58.50;;;;;;5051357;28;20515;-69
2021/12/24 14:24:23;;;;;;;1.55;0.90;;;14.50;56.60;;;;;;5038042;28;20143;-70
2021/12/24 14:26:56;;;;;;;1.20;1.00;;;14.60;64.90;;;;;;5049149;28;20140;-71
2021/12/24 14:29:34;;;;;;;1.83;1.15;;;14.50;59.90;;;;;;5050507;28;20049;-70
2021/12/24 14:32:02;;;;;;;1.60;1.10;;;14.10;60.40;;;;;;5050467;28;20055;-70
2021/12/24 14:34:45;;;;;;;1.92;1.05;;;14.40;63.70;;;;;;5050558;28;20044;-70
2021/12/24 14:37:21;;;;;;;1.45;1.00;;;14.40;64.80;;;;;;5050423;28;20088;-70
2021/12/24 14:39:48;;;;;;;2.47;1.20;;;14.00;61.40;;;;;;5049768;28;20135;-70
2021/12/24 14:42:21;;;;;;;1.15;1.00;;;14.30;60.20;;;;;;5046998;28;20574;-70
2021/12/24 14:44:49;;;;;;;1.30;1.00;;;14.50;64.70;;;;;;5030959;28;20136;-70